Thor, South Carolina
Current Conditions -  °F | °C
As of 4:56 PM on Monday 20 Oct 2014 (Local Time) from KCAE Reporting Station
Scattered Clouds Scattered Clouds  
Wind Chill: 24°   Ceiling: Unl
Heat Index: 24°   Visibility: 10mi
Dew Point:   Wind: 10mph
Humidity: 38%   Direction: 230°SW
Pressure: 29.98"   Gusts: NA
Location:  33.7682°N, 81.2599°W
Report Text: KCAE 202056Z 23009KT 10SM SCT055 SCT200 24/09 A2998 RMK AO2 SLP151 T02390089 56020
Loading
Personal Weather Stations






























Interactive Weather Map
Tropical Storm Tracking
New forecast layout! Learn more

10-Day Weather Forecast

Advertisements
Track Severe Weather on mobile